createdAt,value
2022-10-18T03:48:06.976Z,101822.44
2022-10-18T03:51:09.988Z,101822.44
2022-10-18T03:54:12.208Z,101826.13
2022-10-18T03:57:14.854Z,101832.25
2022-10-18T04:00:17.984Z,101833.91
2022-10-18T04:03:21.849Z,101824.47
2022-10-18T04:06:24.031Z,101824.47
2022-10-18T04:09:26.808Z,101831.50
2022-10-18T04:12:29.253Z,101828.78
2022-10-18T04:15:32.593Z,101823.56
2022-10-18T04:18:34.862Z,101814.06
2022-10-18T04:21:37.563Z,101817.44
2022-10-18T04:24:39.867Z,101820.78
2022-10-18T04:27:42.784Z,101817.25
2022-10-18T04:30:53.220Z,101811.19
2022-10-18T04:33:55.826Z,101812.97
2022-10-18T04:36:58.123Z,101818.12
2022-10-18T04:40:00.618Z,101821.06
2022-10-18T04:43:03.099Z,101823.84
2022-10-18T04:46:05.891Z,101811.88
2022-10-18T04:49:08.393Z,101813.75
2022-10-18T04:52:10.940Z,101807.56
2022-10-18T04:55:13.326Z,101802.44
2022-10-18T04:58:17.293Z,101801.72
2022-10-18T05:01:19.693Z,101798.41
2022-10-18T05:04:22.367Z,101794.28
2022-10-18T05:07:24.633Z,101798.75
2022-10-18T05:10:29.196Z,101791.00
2022-10-18T05:13:31.628Z,101792.91
2022-10-18T05:16:34.321Z,101798.88
2022-10-18T05:19:36.715Z,101798.75
2022-10-18T05:22:39.561Z,101802.31
2022-10-18T05:25:43.023Z,101791.94
2022-10-18T05:28:46.272Z,101798.81
2022-10-18T05:31:49.874Z,101803.97
2022-10-18T05:34:52.370Z,101798.84
2022-10-18T05:37:54.670Z,101800.56
2022-10-18T05:40:58.106Z,101806.59
2022-10-18T05:44:05.044Z,101807.59
2022-10-18T05:47:07.657Z,101796.97
2022-10-18T05:50:10.036Z,101798.63
2022-10-18T05:53:31.848Z,101801.94
2022-10-18T05:56:35.241Z,101793.06
2022-10-18T05:59:37.786Z,101803.16
2022-10-18T06:02:40.230Z,101798.41
2022-10-18T06:05:42.893Z,101800.69
2022-10-18T06:08:45.272Z,101803.25
2022-10-18T06:11:47.898Z,101805.56
2022-10-18T06:14:50.180Z,101805.19
2022-10-18T06:17:52.765Z,101801.50
2022-10-18T06:20:59.363Z,101802.06
2022-10-18T06:24:01.957Z,101802.78
2022-10-18T06:27:08.814Z,101814.72
2022-10-18T06:30:11.684Z,101823.97
2022-10-18T06:33:14.178Z,101823.75
2022-10-18T06:36:24.216Z,101813.56
2022-10-18T06:39:26.742Z,101814.13
2022-10-18T06:42:29.307Z,101813.78
2022-10-18T06:45:31.603Z,101820.63
2022-10-18T06:48:36.073Z,101824.78
2022-10-18T06:51:39.089Z,101815.72
2022-10-18T06:54:41.610Z,101816.19
2022-10-18T06:57:43.949Z,101820.31
2022-10-18T07:00:47.517Z,101822.59
2022-10-18T07:03:51.914Z,101828.59
2022-10-18T07:06:54.465Z,101835.16
2022-10-18T07:09:56.774Z,101829.75
2022-10-18T07:13:19.952Z,101826.87
2022-10-18T07:16:21.641Z,101824.09
2022-10-18T07:19:24.274Z,101822.78
2022-10-18T07:22:30.163Z,101821.41
2022-10-18T07:25:33.293Z,101808.97
2022-10-18T07:28:35.745Z,101811.56
2022-10-18T07:31:39.094Z,101810.59
2022-10-18T07:34:41.400Z,101802.91
2022-10-18T07:37:44.023Z,101801.72
2022-10-18T07:40:46.597Z,101805.81
2022-10-18T07:43:51.146Z,101799.22
2022-10-18T07:46:53.674Z,101803.00
2022-10-18T07:49:56.209Z,101801.44
2022-10-18T07:52:58.579Z,101811.56
2022-10-18T07:56:09.347Z,101797.41
2022-10-18T07:59:12.388Z,101799.44
2022-10-18T08:02:15.171Z,101800.31
2022-10-18T08:05:19.561Z,101790.34
2022-10-18T08:08:23.102Z,101781.12
2022-10-18T08:11:26.134Z,101787.72
2022-10-18T08:14:28.456Z,101789.56
2022-10-18T08:17:31.316Z,101782.56
2022-10-18T08:20:36.164Z,101772.09
2022-10-18T08:23:39.694Z,101775.13
2022-10-18T08:26:41.968Z,101772.16
2022-10-18T08:29:44.611Z,101761.16
2022-10-18T08:32:46.849Z,101751.78
2022-10-18T08:36:00.906Z,101755.16
2022-10-18T08:39:03.598Z,101757.53
2022-10-18T08:42:17.377Z,101744.53
2022-10-18T08:45:41.116Z,101747.44
2022-10-18T08:48:46.334Z,101738.37
2022-10-18T08:51:50.768Z,101734.03
2022-10-18T08:55:22.144Z,101736.91
2022-10-18T08:58:30.781Z,101727.50
2022-10-18T09:05:19.635Z,101716.56
2022-10-18T09:08:54.249Z,101712.25
2022-10-18T09:12:34.431Z,101714.94
2022-10-18T09:15:59.530Z,101705.34
2022-10-18T09:19:20.718Z,101695.63
2022-10-18T09:22:53.135Z,101706.88
2022-10-18T09:25:58.464Z,101702.44
2022-10-18T09:29:35.374Z,101704.87
2022-10-18T09:33:03.014Z,101701.00
2022-10-18T09:36:13.981Z,101697.44
2022-10-18T09:39:19.864Z,101698.56
2022-10-18T09:42:31.507Z,101690.16
2022-10-18T09:45:39.182Z,101689.69
2022-10-18T09:49:05.837Z,101681.44
2022-10-18T09:52:16.167Z,101673.72
2022-10-18T09:55:25.059Z,101671.75
2022-10-18T09:58:40.109Z,101666.22
2022-10-18T10:01:43.232Z,101670.03
2022-10-18T10:04:45.843Z,101666.53
2022-10-18T10:07:49.323Z,101660.97
2022-10-18T10:10:52.292Z,101652.28
2022-10-18T10:14:08.147Z,101643.16
2022-10-18T10:17:32.266Z,101640.34
2022-10-18T10:20:48.575Z,101634.72
2022-10-18T10:23:54.743Z,101628.66
2022-10-18T10:27:06.966Z,101625.91
2022-10-18T10:30:24.272Z,101626.78
2022-10-18T10:33:38.109Z,101618.28
2022-10-18T10:36:53.033Z,101602.53
2022-10-18T10:40:24.081Z,101607.09
2022-10-18T10:43:38.871Z,101605.47
2022-10-18T10:46:41.972Z,101601.78
2022-10-18T10:49:47.610Z,101598.34
2022-10-18T10:52:50.046Z,101593.63
2022-10-18T10:55:54.736Z,101583.00
2022-10-18T10:59:03.266Z,101586.22
2022-10-18T11:02:18.150Z,101582.31
2022-10-18T11:05:23.239Z,101575.66
2022-10-18T11:08:38.956Z,101568.94
2022-10-18T11:11:49.959Z,101559.00
2022-10-18T11:15:09.938Z,101553.34
2022-10-18T11:18:21.707Z,101554.16
2022-10-18T11:21:29.625Z,101548.87
2022-10-18T11:24:31.916Z,101548.87
2022-10-18T11:27:43.470Z,101544.84
2022-10-18T11:31:00.273Z,101541.84
2022-10-18T11:34:32.738Z,101531.94
2022-10-18T11:38:17.938Z,101531.94
2022-10-18T11:41:57.671Z,101523.97
2022-10-18T11:45:50.812Z,101519.62
2022-10-18T11:49:11.774Z,101516.09
2022-10-18T11:52:41.139Z,101506.09
2022-10-18T11:56:05.883Z,101502.91
2022-10-18T11:59:27.007Z,101487.91
2022-10-18T12:03:04.114Z,101483.66
2022-10-18T12:06:16.364Z,101479.16
2022-10-18T12:09:31.280Z,101479.69
2022-10-18T12:12:41.730Z,101474.97
2022-10-18T12:15:45.249Z,101471.00
2022-10-18T12:18:59.437Z,101463.72
2022-10-18T12:22:22.406Z,101460.09
2022-10-18T12:25:25.801Z,101457.47
2022-10-18T12:29:01.184Z,101442.97
2022-10-18T12:32:14.135Z,101438.88
2022-10-18T12:35:19.227Z,101441.00
2022-10-18T12:38:29.098Z,101440.56
2022-10-18T12:41:33.608Z,101432.84
2022-10-18T12:44:36.380Z,101425.03
2022-10-18T12:47:39.165Z,101414.75
2022-10-18T12:50:44.083Z,101411.44
2022-10-18T12:53:49.403Z,101410.09
2022-10-18T12:56:52.380Z,101397.47
2022-10-18T12:59:55.077Z,101397.41
2022-10-18T13:03:12.828Z,101390.94
2022-10-18T13:06:15.115Z,101395.44
2022-10-18T13:09:20.997Z,101392.59
2022-10-18T13:12:23.212Z,101385.31
2022-10-18T13:15:49.079Z,101380.06
2022-10-18T13:19:10.285Z,101377.16
2022-10-18T13:22:27.816Z,101377.88
2022-10-18T13:25:51.966Z,101361.66
2022-10-18T13:29:13.363Z,101369.41
2022-10-18T13:32:45.181Z,101367.31
2022-10-18T13:35:54.682Z,101363.28
2022-10-18T13:39:01.987Z,101364.44
2022-10-18T13:42:33.326Z,101358.69
2022-10-18T13:45:41.740Z,101364.66
2022-10-18T13:48:46.746Z,101367.78
2022-10-18T13:52:19.984Z,101356.53
2022-10-18T13:56:00.286Z,101361.12
2022-10-18T13:59:24.064Z,101356.66
2022-10-18T14:02:50.378Z,101351.22
2022-10-18T14:06:11.869Z,101344.19
2022-10-18T14:09:25.998Z,101342.37
2022-10-18T14:12:44.303Z,101339.31
2022-10-18T14:15:51.637Z,101327.59
2022-10-18T14:19:02.612Z,101326.13
2022-10-18T14:22:18.430Z,101327.94
2022-10-18T14:25:27.877Z,101324.13
2022-10-18T14:28:48.077Z,101323.25
2022-10-18T14:31:54.775Z,101324.91
2022-10-18T14:35:20.631Z,101320.44
2022-10-18T14:38:22.958Z,101318.44
2022-10-18T14:41:38.446Z,101313.47
2022-10-18T14:44:41.035Z,101307.97
2022-10-18T14:47:45.630Z,101304.53
2022-10-18T14:51:00.321Z,101301.41
2022-10-18T14:54:03.257Z,101297.78
2022-10-18T14:57:07.020Z,101294.37
2022-10-18T15:00:21.513Z,101292.06
2022-10-18T15:03:26.156Z,101286.03
2022-10-18T15:06:28.617Z,101279.34
2022-10-18T15:09:34.279Z,101277.69
2022-10-18T15:13:04.375Z,101279.19
2022-10-18T15:16:02.434Z,101275.13
2022-10-18T15:19:13.471Z,101279.44
2022-10-18T15:22:33.358Z,101270.81
2022-10-18T15:25:35.913Z,101277.13
2022-10-18T15:28:52.481Z,101263.06
2022-10-18T15:31:55.116Z,101267.84
2022-10-18T15:35:26.121Z,101257.97
2022-10-18T15:38:32.675Z,101263.59
2022-10-18T15:41:48.846Z,101260.44
2022-10-18T15:44:51.567Z,101263.94
2022-10-18T15:47:58.344Z,101263.50
2022-10-18T15:51:04.685Z,101254.94
2022-10-18T15:54:19.430Z,101254.16
2022-10-18T15:57:23.427Z,101254.66
2022-10-18T16:00:27.804Z,101254.59
